Time;durP1;ratioP1;P1;durP2;ratioP2;P2;SDS_P1;SDS_P2;PMS_P1;PMS_P2;Temp;Humidity;BMP_temperature;BMP_pressure;BME280_temperature;BME280_humidity;BME280_pressure;Samples;Min_cycle;Max_cycle;Signal;HPM_P1;HPM_P2
2022/11/29 00:01:23;;;;;;;188.48;79.30;;;;;;;5.02;100.00;101342.13;5052635;28;20124;-48
2022/11/29 00:03:49;;;;;;;186.70;75.20;;;;;;;4.94;100.00;101334.91;5052820;28;20079;-48
2022/11/29 00:06:20;;;;;;;179.68;75.18;;;;;;;4.94;100.00;101340.03;5052255;28;20029;-45
2022/11/29 00:08:46;;;;;;;216.25;87.95;;;;;;;5.02;100.00;101342.13;5052345;28;20035;-49
2022/11/29 00:12:10;;;;;;;228.95;93.82;;;;;;;5.03;100.00;101341.34;5052788;28;20063;-49
2022/11/29 00:14:00;;;;;;;249.23;91.53;;;;;;;4.97;100.00;101338.41;5052165;28;20380;-48
2022/11/29 00:16:26;;;;;;;238.05;92.63;;;;;;;4.98;100.00;101340.19;5052836;28;20013;-49
2022/11/29 00:18:51;;;;;;;285.92;98.18;;;;;;;5.02;100.00;101337.03;5052701;28;20447;-50
2022/11/29 00:21:16;;;;;;;256.52;97.78;;;;;;;5.00;100.00;101343.75;5052342;28;20028;-48
2022/11/29 00:23:41;;;;;;;254.52;97.28;;;;;;;5.03;100.00;101344.78;5052176;28;20028;-47
2022/11/29 00:26:07;;;;;;;209.70;85.25;;;;;;;4.90;100.00;101345.72;5051991;28;20029;-48
2022/11/29 00:28:34;;;;;;;184.27;81.65;;;;;;;4.98;100.00;101345.31;5052609;28;20028;-48
2022/11/29 00:30:59;;;;;;;183.18;80.97;;;;;;;4.98;100.00;101352.97;5052617;28;20033;-47
2022/11/29 00:33:25;;;;;;;193.75;82.32;;;;;;;4.94;100.00;101349.34;5052150;28;20021;-48
2022/11/29 00:35:50;;;;;;;194.20;83.30;;;;;;;4.93;100.00;101353.56;5052124;28;20033;-49
2022/11/29 00:38:15;;;;;;;180.63;81.45;;;;;;;4.87;100.00;101353.19;5052611;28;20036;-49
2022/11/29 00:40:40;;;;;;;195.48;80.15;;;;;;;4.87;100.00;101357.44;5051579;28;20430;-49
2022/11/29 00:43:06;;;;;;;188.35;80.38;;;;;;;4.81;100.00;101355.38;5052496;28;20052;-49
2022/11/29 00:45:31;;;;;;;182.68;80.68;;;;;;;4.87;100.00;101358.31;5052577;28;20032;-45
2022/11/29 00:47:56;;;;;;;290.08;92.05;;;;;;;4.90;100.00;101353.38;5052108;28;20102;-48
2022/11/29 00:50:21;;;;;;;302.52;96.07;;;;;;;4.93;100.00;101350.13;5052403;28;20025;-49
2022/11/29 00:52:47;;;;;;;282.08;96.50;;;;;;;5.01;100.00;101355.69;5052088;28;20033;-47
2022/11/29 00:55:12;;;;;;;263.17;90.03;;;;;;;4.97;100.00;101358.84;5051875;28;20477;-48
2022/11/29 00:57:37;;;;;;;265.17;85.38;;;;;;;4.94;100.00;101360.47;5052012;28;20090;-50
2022/11/29 01:00:03;;;;;;;232.05;80.60;;;;;;;4.92;100.00;101356.91;5052330;28;20444;-46
2022/11/29 01:02:29;;;;;;;235.98;82.20;;;;;;;4.92;100.00;101362.03;5051941;28;20033;-49
2022/11/29 01:04:54;;;;;;;206.55;77.57;;;;;;;4.93;100.00;101358.69;5052174;28;20029;-49
2022/11/29 01:07:19;;;;;;;188.38;74.25;;;;;;;4.90;100.00;101353.38;5052247;28;20053;-49
2022/11/29 01:09:45;;;;;;;185.82;76.20;;;;;;;4.94;100.00;101357.00;5054798;28;20075;-48
2022/11/29 01:12:10;;;;;;;299.13;91.38;;;;;;;4.97;100.00;101358.84;5055860;28;20032;-50
2022/11/29 01:14:35;;;;;;;308.90;91.05;;;;;;;4.95;100.00;101361.31;5055778;28;20029;-49
2022/11/29 01:17:00;;;;;;;306.02;93.38;;;;;;;4.95;100.00;101353.66;5055720;28;20029;-48
2022/11/29 01:19:26;;;;;;;243.20;86.85;;;;;;;4.94;100.00;101359.56;5055759;28;20025;-48
2022/11/29 01:21:51;;;;;;;237.40;88.18;;;;;;;4.90;100.00;101361.03;5055747;28;20029;-49
2022/11/29 01:24:16;;;;;;;253.70;88.47;;;;;;;4.83;100.00;101361.47;5055299;28;20021;-49
2022/11/29 01:26:41;;;;;;;204.60;87.03;;;;;;;4.84;100.00;101365.78;5055522;28;20468;-49
2022/11/29 01:29:11;;;;;;;215.75;84.57;;;;;;;4.85;100.00;101366.66;5055731;28;20028;-49
2022/11/29 01:31:37;;;;;;;221.70;83.97;;;;;;;4.78;100.00;101356.06;5054889;28;20090;-49
2022/11/29 01:34:05;;;;;;;199.73;82.90;;;;;;;4.77;100.00;101366.19;5055760;28;20400;-48
2022/11/29 01:36:30;;;;;;;180.27;78.72;;;;;;;4.74;100.00;101361.78;5055112;28;20075;-46
2022/11/29 01:38:59;;;;;;;200.30;81.13;;;;;;;4.66;100.00;101363.00;5055296;28;20025;-49
2022/11/29 01:41:28;;;;;;;231.98;85.70;;;;;;;4.69;100.00;101367.41;5055830;28;20028;-49
2022/11/29 01:43:55;;;;;;;229.25;84.95;;;;;;;4.68;100.00;101368.19;5054884;28;20021;-48
2022/11/29 01:46:20;;;;;;;201.32;78.88;;;;;;;4.61;100.00;101364.38;5055472;28;20067;-49
2022/11/29 01:48:47;;;;;;;169.35;74.68;;;;;;;4.58;100.00;101366.72;5055400;28;20053;-46
2022/11/29 01:51:12;;;;;;;179.10;76.85;;;;;;;4.53;100.00;101375.75;5054782;28;20388;-48
2022/11/29 01:53:38;;;;;;;204.00;77.10;;;;;;;4.39;100.00;101368.13;5054909;28;20021;-49
2022/11/29 01:56:04;;;;;;;176.88;72.90;;;;;;;4.32;100.00;101380.41;5055634;28;20040;-48
2022/11/29 01:58:30;;;;;;;149.90;71.25;;;;;;;4.44;100.00;101387.19;5054855;28;20021;-49
2022/11/29 02:00:57;;;;;;;212.73;79.05;;;;;;;4.37;100.00;101385.00;5054553;28;20504;-49
2022/11/29 02:03:23;;;;;;;219.93;82.17;;;;;;;4.35;100.00;101386.59;5055557;28;20037;-49
2022/11/29 02:05:50;;;;;;;267.67;86.93;;;;;;;4.37;100.00;101396.91;5054306;28;20279;-48
2022/11/29 02:08:22;;;;;;;224.40;87.72;;;;;;;4.39;100.00;101403.88;5055156;28;20043;-47
2022/11/29 02:10:48;;;;;;;220.88;91.50;;;;;;;4.48;100.00;101411.22;5054915;28;20035;-49
2022/11/29 02:13:32;;;;;;;194.50;83.50;;;;;;;4.47;100.00;101403.44;5054662;28;20036;-48
2022/11/29 02:16:20;;;;;;;186.75;82.57;;;;;;;4.41;100.00;101406.50;5054835;28;20268;-49
2022/11/29 02:18:57;;;;;;;173.90;79.57;;;;;;;4.42;100.00;101403.19;5043796;28;20052;-49
2022/11/29 02:21:23;;;;;;;167.43;76.90;;;;;;;4.48;100.00;101408.69;5053991;28;20056;-50
2022/11/29 02:24:10;;;;;;;191.20;81.43;;;;;;;4.50;100.00;101401.97;5054625;28;20053;-48
2022/11/29 02:26:44;;;;;;;260.30;92.32;;;;;;;4.52;100.00;101404.63;5054081;28;20025;-47
2022/11/29 02:29:21;;;;;;;376.90;104.75;;;;;;;4.54;100.00;101401.38;5054739;28;20037;-50
2022/11/29 02:31:52;;;;;;;433.38;111.65;;;;;;;4.57;100.00;101404.16;5054378;28;20464;-49
2022/11/29 02:34:23;;;;;;;514.25;117.88;;;;;;;4.60;100.00;101411.13;5054218;28;20021;-49
2022/11/29 02:37:24;;;;;;;427.02;112.75;;;;;;;4.60;100.00;101408.56;5054110;28;20048;-49
2022/11/29 02:40:21;;;;;;;400.45;111.53;;;;;;;4.59;100.00;101412.75;5053866;28;20041;-49
2022/11/29 02:43:02;;;;;;;475.92;116.75;;;;;;;4.61;100.00;101406.09;5054090;28;20040;-49
2022/11/29 02:45:40;;;;;;;390.30;115.43;;;;;;;4.61;100.00;101408.66;5054417;28;20033;-49
2022/11/29 02:48:24;;;;;;;330.23;112.03;;;;;;;4.60;100.00;101414.53;5053924;28;20035;-46
2022/11/29 02:51:00;;;;;;;239.88;107.10;;;;;;;4.67;100.00;101409.81;5053849;28;20036;-49
2022/11/29 02:53:42;;;;;;;330.35;112.03;;;;;;;4.67;100.00;101420.03;5054409;28;20021;-48
2022/11/29 02:56:23;;;;;;;450.85;119.45;;;;;;;4.65;100.00;101413.94;5054211;28;20515;-49
2022/11/29 02:58:57;;;;;;;300.10;109.45;;;;;;;4.63;100.00;101413.84;5053764;28;20542;-50
2022/11/29 03:01:54;;;;;;;256.10;105.10;;;;;;;4.65;100.00;101426.69;5053431;28;20521;-48
2022/11/29 03:04:32;;;;;;;467.38;120.30;;;;;;;4.62;100.00;101432.50;5046339;28;20029;-49
2022/11/29 03:07:08;;;;;;;418.63;115.45;;;;;;;4.56;100.00;101427.91;5054168;28;20032;-49
2022/11/29 03:09:44;;;;;;;285.70;102.25;;;;;;;4.54;100.00;101428.59;5053001;28;20025;-48
2022/11/29 03:12:25;;;;;;;307.35;108.10;;;;;;;4.53;100.00;101431.91;5053820;28;20149;-48
2022/11/29 03:15:21;;;;;;;199.98;93.60;;;;;;;4.51;100.00;101434.38;5052994;28;20037;-48
2022/11/29 03:18:11;;;;;;;251.85;101.07;;;;;;;4.48;100.00;101433.31;5053449;28;20037;-49
2022/11/29 03:20:54;;;;;;;207.35;94.13;;;;;;;4.41;100.00;101438.00;5053625;28;20036;-49
2022/11/29 03:23:35;;;;;;;301.90;100.55;;;;;;;4.41;100.00;101437.13;5053334;28;20116;-49
2022/11/29 03:26:05;;;;;;;342.85;104.45;;;;;;;4.35;100.00;101441.84;5053588;28;20021;-47
2022/11/29 03:28:37;;;;;;;232.30;97.55;;;;;;;4.28;100.00;101449.09;5053660;28;20036;-46
2022/11/29 03:31:12;;;;;;;269.13;99.88;;;;;;;4.32;100.00;101441.66;5052797;28;20033;-49
2022/11/29 03:33:49;;;;;;;308.17;103.60;;;;;;;4.28;100.00;101456.75;5053205;28;20059;-48
2022/11/29 03:36:28;;;;;;;235.82;102.40;;;;;;;4.27;100.00;101455.00;5053140;28;20045;-50
2022/11/29 03:38:57;;;;;;;287.33;101.07;;;;;;;4.29;100.00;101448.31;5052802;28;20039;-48
2022/11/29 03:41:39;;;;;;;234.95;96.35;;;;;;;4.32;100.00;101459.53;5053324;28;20025;-48
2022/11/29 03:44:26;;;;;;;432.05;111.28;;;;;;;4.28;100.00;101459.31;5052800;28;20112;-49
2022/11/29 03:47:07;;;;;;;289.27;96.05;;;;;;;4.24;100.00;101459.88;5052914;28;20040;-49
2022/11/29 03:49:48;;;;;;;279.02;96.70;;;;;;;4.23;100.00;101465.78;5053082;28;20021;-49
2022/11/29 03:52:27;;;;;;;337.02;103.90;;;;;;;4.19;100.00;101466.34;5052217;28;20492;-48
2022/11/29 03:54:59;;;;;;;197.90;92.90;;;;;;;4.18;100.00;101479.03;5053010;28;20032;-49
2022/11/29 03:57:33;;;;;;;205.23;95.13;;;;;;;4.16;100.00;101471.28;5052659;28;20032;-48
2022/11/29 04:00:04;;;;;;;376.25;102.30;;;;;;;4.17;100.00;101483.25;5052679;28;20037;-46
2022/11/29 04:02:41;;;;;;;237.63;97.43;;;;;;;4.25;100.00;101486.31;5052882;28;20035;-48
2022/11/29 04:05:36;;;;;;;352.77;106.87;;;;;;;4.25;100.00;101493.97;5052743;28;20082;-49
2022/11/29 04:08:17;;;;;;;311.92;100.75;;;;;;;4.18;100.00;101479.91;5052914;28;20032;-48
2022/11/29 04:11:11;;;;;;;369.33;103.18;;;;;;;4.12;100.00;101485.50;5052624;28;20021;-49
2022/11/29 04:14:06;;;;;;;364.42;104.88;;;;;;;4.15;100.00;101489.91;5049122;28;20472;-49
2022/11/29 04:16:47;;;;;;;280.70;92.70;;;;;;;4.12;100.00;101482.06;5052761;28;20040;-47
2022/11/29 04:19:27;;;;;;;419.55;103.22;;;;;;;4.10;100.00;101491.28;5052336;28;20075;-47
2022/11/29 04:22:16;;;;;;;375.60;101.45;;;;;;;4.03;100.00;101490.00;5052271;28;20488;-50
2022/11/29 04:25:08;;;;;;;357.73;95.05;;;;;;;4.00;100.00;101491.44;5052510;28;20029;-47
2022/11/29 04:27:40;;;;;;;249.05;94.50;;;;;;;3.99;100.00;101490.56;5052429;28;20495;-49
2022/11/29 04:30:05;;;;;;;277.48;95.93;;;;;;;3.97;100.00;101494.69;5052860;28;20021;-48
2022/11/29 04:33:05;;;;;;;294.73;98.38;;;;;;;3.99;100.00;101498.22;5052047;28;20083;-49
2022/11/29 04:35:47;;;;;;;264.15;94.40;;;;;;;3.94;100.00;101499.59;5052425;28;20029;-46
2022/11/29 04:38:25;;;;;;;186.70;89.90;;;;;;;3.95;100.00;101502.22;5052844;28;20120;-48
2022/11/29 04:41:18;;;;;;;288.67;97.90;;;;;;;3.96;100.00;101492.91;5051876;28;20112;-49
2022/11/29 04:44:07;;;;;;;363.80;101.35;;;;;;;3.89;100.00;101506.03;5054279;28;20033;-50
2022/11/29 04:46:55;;;;;;;256.98;96.68;;;;;;;3.98;100.00;101511.75;5055481;28;20040;-49
2022/11/29 04:49:54;;;;;;;243.90;93.70;;;;;;;3.95;100.00;101512.44;5056531;28;20395;-48
2022/11/29 04:52:43;;;;;;;337.38;98.75;;;;;;;3.92;100.00;101504.56;5056800;28;20041;-49
2022/11/29 04:55:38;;;;;;;336.85;95.25;;;;;;;3.92;100.00;101517.31;5056170;28;20029;-49
2022/11/29 04:58:19;;;;;;;227.27;91.05;;;;;;;3.95;100.00;101519.19;5056651;28;20045;-49
2022/11/29 05:01:22;;;;;;;206.63;89.75;;;;;;;3.95;100.00;101517.53;5055445;28;20049;-47
2022/11/29 05:03:54;;;;;;;209.65;89.15;;;;;;;3.91;100.00;101518.13;5047260;28;20044;-47
2022/11/29 05:06:50;;;;;;;202.63;87.70;;;;;;;3.93;100.00;101523.31;5056438;28;20032;-45
2022/11/29 05:09:18;;;;;;;198.32;87.32;;;;;;;3.92;100.00;101535.16;5055677;28;20491;-49
2022/11/29 05:11:55;;;;;;;180.40;84.55;;;;;;;3.97;100.00;101537.16;5055786;28;20056;-49
2022/11/29 05:14:54;;;;;;;187.15;85.25;;;;;;;4.02;100.00;101538.34;5055724;28;20041;-48
2022/11/29 05:17:56;;;;;;;171.82;84.72;;;;;;;4.04;100.00;101546.97;5055866;28;20051;-49
2022/11/29 05:20:43;;;;;;;180.00;84.95;;;;;;;4.02;100.00;101553.66;5056282;28;20041;-49
2022/11/29 05:23:38;;;;;;;167.18;82.20;;;;;;;4.06;100.00;101556.50;5055619;28;20033;-50
2022/11/29 05:26:21;;;;;;;258.48;89.45;;;;;;;4.07;100.00;101555.72;5053711;28;20040;-48
2022/11/29 05:29:01;;;;;;;202.93;86.82;;;;;;;4.08;100.00;101561.69;5055165;28;20051;-48
2022/11/29 05:31:54;;;;;;;163.23;83.28;;;;;;;4.12;100.00;101566.25;5055478;28;20053;-48
2022/11/29 05:34:36;;;;;;;185.30;81.50;;;;;;;4.15;100.00;101561.34;5055738;28;20029;-50
2022/11/29 05:37:27;;;;;;;256.23;84.50;;;;;;;4.09;100.00;101572.03;5055411;28;20060;-49
2022/11/29 05:40:00;;;;;;;263.85;86.38;;;;;;;4.00;100.00;101565.41;5055667;28;20029;-49
2022/11/29 05:42:47;;;;;;;273.50;89.30;;;;;;;3.97;100.00;101576.28;5055593;28;20040;-48
2022/11/29 05:45:31;;;;;;;237.40;86.03;;;;;;;4.00;100.00;101583.28;5055628;28;20040;-48
2022/11/29 05:48:04;;;;;;;321.58;91.43;;;;;;;3.96;100.00;101579.63;5055699;28;20071;-49
2022/11/29 05:50:39;;;;;;;189.65;83.97;;;;;;;3.97;100.00;101586.50;5055020;28;20017;-49
2022/11/29 05:53:20;;;;;;;231.20;90.68;;;;;;;3.96;100.00;101584.72;5055089;28;20510;-48
2022/11/29 05:56:15;;;;;;;197.93;86.00;;;;;;;3.98;100.00;101595.00;5055198;28;20028;-48
2022/11/29 05:58:43;;;;;;;197.73;85.43;;;;;;;3.96;100.00;101584.72;5054349;28;20060;-47
2022/11/29 06:01:28;;;;;;;216.18;87.07;;;;;;;3.97;100.00;101588.16;5055207;28;20044;-47
2022/11/29 06:04:11;;;;;;;226.57;90.65;;;;;;;3.97;100.00;101593.28;5054642;28;20087;-48
2022/11/29 06:06:48;;;;;;;244.18;91.82;;;;;;;3.94;100.00;101594.81;5054685;28;20059;-49
2022/11/29 06:09:29;;;;;;;214.80;91.28;;;;;;;4.01;100.00;101597.78;5055275;28;20025;-49
2022/11/29 06:12:02;;;;;;;228.43;92.40;;;;;;;3.95;100.00;101599.16;5054146;28;20041;-48
2022/11/29 06:14:50;;;;;;;215.23;89.93;;;;;;;4.05;100.00;101599.78;5055078;28;20029;-48
2022/11/29 06:17:31;;;;;;;241.75;94.22;;;;;;;4.05;100.00;101609.97;5055228;28;20025;-49
2022/11/29 06:20:34;;;;;;;237.57;89.40;;;;;;;4.03;100.00;101608.97;5054278;28;20040;-48
2022/11/29 06:23:17;;;;;;;229.05;90.55;;;;;;;4.08;100.00;101610.16;5055006;28;20120;-48
2022/11/29 06:25:48;;;;;;;228.27;92.32;;;;;;;4.07;100.00;101618.63;5054074;28;20029;-48
2022/11/29 06:28:25;;;;;;;241.23;94.53;;;;;;;4.08;100.00;101625.47;5054608;28;20039;-48
2022/11/29 06:31:01;;;;;;;261.87;96.07;;;;;;;4.18;100.00;101632.09;5054608;28;20033;-48
2022/11/29 06:33:37;;;;;;;252.32;94.45;;;;;;;4.15;100.00;101634.47;5054183;28;20029;-48
2022/11/29 06:36:23;;;;;;;234.52;91.85;;;;;;;4.19;100.00;101639.84;5054855;28;20025;-50
2022/11/29 06:38:48;;;;;;;314.63;96.57;;;;;;;4.10;100.00;101639.22;5053787;28;20025;-48
2022/11/29 06:41:20;;;;;;;353.30;97.43;;;;;;;4.10;100.00;101649.44;5054540;28;20091;-48
2022/11/29 06:43:45;;;;;;;376.67;99.75;;;;;;;4.09;100.00;101647.66;5054395;28;20037;-47
2022/11/29 06:46:35;;;;;;;330.67;97.82;;;;;;;4.07;100.00;101652.66;5054024;28;20033;-48
2022/11/29 06:49:08;;;;;;;332.50;97.35;;;;;;;4.05;100.00;101655.88;5054199;28;20036;-49
2022/11/29 06:51:47;;;;;;;290.92;95.88;;;;;;;4.03;100.00;101657.44;5053933;28;20094;-48
2022/11/29 06:54:22;;;;;;;376.15;101.47;;;;;;;4.03;100.00;101663.44;5053875;28;20045;-48
2022/11/29 06:57:10;;;;;;;385.40;102.82;;;;;;;4.06;100.00;101667.88;5053729;28;20103;-48
2022/11/29 06:59:51;;;;;;;386.27;103.68;;;;;;;4.06;100.00;101667.88;5053865;28;20033;-48
2022/11/29 07:02:46;;;;;;;303.92;98.03;;;;;;;4.10;100.00;101669.84;5054520;28;20041;-47
2022/11/29 07:05:14;;;;;;;332.27;101.85;;;;;;;4.13;100.00;101672.59;5054317;28;20029;-48
2022/11/29 07:07:40;;;;;;;334.63;101.68;;;;;;;4.18;100.00;101683.13;5052820;28;20083;-47
2022/11/29 07:10:06;;;;;;;450.77;106.95;;;;;;;4.13;100.00;101680.25;5053651;28;20037;-48
2022/11/29 07:12:31;;;;;;;404.08;105.60;;;;;;;4.16;100.00;101685.59;5053723;28;20427;-46
2022/11/29 07:14:57;;;;;;;339.05;101.63;;;;;;;4.16;100.00;101689.78;5053424;28;20111;-49
2022/11/29 07:17:38;;;;;;;377.58;102.18;;;;;;;4.15;100.00;101693.13;5053428;28;20112;-49
2022/11/29 07:20:20;;;;;;;424.10;103.20;;;;;;;4.13;100.00;101685.34;5053981;28;20033;-48
2022/11/29 07:22:57;;;;;;;360.38;101.53;;;;;;;4.12;100.00;101694.69;5052511;28;20459;-48
2022/11/29 07:25:40;;;;;;;482.17;110.90;;;;;;;4.15;100.00;101699.13;5053805;28;20040;-49
2022/11/29 07:28:23;;;;;;;461.30;107.32;;;;;;;4.11;100.00;101702.25;5053145;28;20020;-47
2022/11/29 07:31:08;;;;;;;483.48;112.38;;;;;;;4.10;100.00;101705.56;5052974;28;20021;-48
2022/11/29 07:33:41;;;;;;;554.75;121.72;;;;;;;4.11;100.00;101698.00;5053118;28;20485;-49
2022/11/29 07:36:16;;;;;;;374.20;107.63;;;;;;;4.18;100.00;101709.53;5053078;28;20025;-48
2022/11/29 07:39:20;;;;;;;442.55;112.55;;;;;;;4.22;100.00;101703.88;5052987;28;20346;-48
2022/11/29 07:42:08;;;;;;;455.75;114.55;;;;;;;4.24;100.00;101715.06;5052169;28;20051;-48
2022/11/29 07:44:58;;;;;;;380.23;108.97;;;;;;;4.25;100.00;101714.28;5052481;28;20476;-49
2022/11/29 07:47:23;;;;;;;408.33;110.88;;;;;;;4.29;100.00;101721.34;5053341;28;20086;-49
2022/11/29 07:49:48;;;;;;;498.75;115.35;;;;;;;4.28;100.00;101726.38;5052415;28;20037;-48
2022/11/29 07:52:15;;;;;;;469.05;115.75;;;;;;;4.31;100.00;101726.56;5053070;28;20057;-49
2022/11/29 07:54:41;;;;;;;408.70;112.97;;;;;;;4.32;100.00;101728.34;5053042;28;20094;-48
2022/11/29 07:57:06;;;;;;;443.48;111.70;;;;;;;4.32;100.00;101730.03;5052659;28;20362;-48
2022/11/29 07:59:31;;;;;;;431.30;116.40;;;;;;;4.34;100.00;101721.69;5052607;28;20068;-47
2022/11/29 08:01:57;;;;;;;423.58;112.90;;;;;;;4.38;100.00;101727.91;5052819;28;20071;-49
2022/11/29 08:04:23;;;;;;;495.90;116.50;;;;;;;4.36;100.00;101726.91;5052458;28;20024;-49
2022/11/29 08:06:48;;;;;;;474.48;115.13;;;;;;;4.38;100.00;101721.13;5052413;28;20417;-49
2022/11/29 08:09:13;;;;;;;452.88;110.40;;;;;;;4.39;100.00;101714.34;5053098;28;20044;-49
2022/11/29 08:11:39;;;;;;;521.40;115.47;;;;;;;4.42;100.00;101717.13;5052024;28;20041;-48
2022/11/29 08:14:04;;;;;;;510.25;116.22;;;;;;;4.47;100.00;101720.88;5052674;28;20037;-48
2022/11/29 08:16:30;;;;;;;474.05;117.18;;;;;;;4.53;100.00;101722.94;5052951;28;20426;-49
2022/11/29 08:18:55;;;;;;;499.58;117.05;;;;;;;4.52;100.00;101722.06;5050814;28;20107;-48
2022/11/29 08:21:21;;;;;;;541.63;119.13;;;;;;;4.54;100.00;101725.59;5052938;28;20029;-48
2022/11/29 08:23:48;;;;;;;427.17;110.95;;;;;;;4.63;100.00;101733.00;5052561;28;20021;-49
2022/11/29 08:26:15;;;;;;;525.67;118.45;;;;;;;4.58;100.00;101727.59;5052048;28;20029;-49
2022/11/29 08:28:40;;;;;;;575.08;121.05;;;;;;;4.59;100.00;101733.56;5052277;28;20055;-49
2022/11/29 08:31:09;;;;;;;512.55;115.65;;;;;;;4.61;100.00;101732.91;5052516;28;20443;-49
2022/11/29 08:33:35;;;;;;;564.17;121.60;;;;;;;4.66;100.00;101742.53;5051332;28;20032;-49
2022/11/29 08:36:05;;;;;;;449.08;115.93;;;;;;;4.67;100.00;101742.63;5052762;28;20116;-48
2022/11/29 08:38:31;;;;;;;469.00;115.32;;;;;;;4.73;100.00;101747.28;5051797;28;20357;-46
2022/11/29 08:41:03;;;;;;;576.60;128.68;;;;;;;4.74;100.00;101741.41;5052319;28;20032;-49
2022/11/29 08:43:29;;;;;;;562.05;124.80;;;;;;;4.78;100.00;101739.16;5052814;28;20036;-48
2022/11/29 08:45:55;;;;;;;596.42;128.10;;;;;;;4.79;100.00;101742.59;5051724;28;20055;-49
2022/11/29 08:48:20;;;;;;;613.00;129.27;;;;;;;4.81;100.00;101745.25;5052154;28;20550;-49
2022/11/29 08:50:48;;;;;;;513.63;118.55;;;;;;;4.78;100.00;101751.91;5052293;28;20029;-48
2022/11/29 08:55:59;;;;;;;624.30;130.55;;;;;;;4.89;100.00;101745.00;5052514;28;20435;-48
2022/11/29 08:58:24;;;;;;;699.70;141.88;;;;;;;4.98;100.00;101759.16;5052320;28;20025;-48
2022/11/29 09:00:50;;;;;;;689.85;142.65;;;;;;;5.10;100.00;101765.09;5051416;28;20457;-48
2022/11/29 09:06:08;;;;;;;674.15;136.93;;;;;;;5.07;100.00;101764.88;5052892;28;20044;-47
2022/11/29 09:08:33;;;;;;;678.90;137.63;;;;;;;5.18;100.00;101770.72;5051146;28;20061;-48
2022/11/29 09:10:58;;;;;;;717.13;139.90;;;;;;;5.23;100.00;101771.91;5052254;28;20053;-46
2022/11/29 09:13:24;;;;;;;673.80;140.02;;;;;;;5.28;100.00;101779.06;5052477;28;20025;-48
2022/11/29 09:15:49;;;;;;;631.78;133.63;;;;;;;5.27;100.00;101774.75;5051125;28;20550;-47
2022/11/29 09:18:14;;;;;;;676.38;132.95;;;;;;;5.29;100.00;101774.84;5052252;28;20037;-48
2022/11/29 09:20:43;;;;;;;606.75;124.80;;;;;;;5.33;100.00;101781.03;5051307;28;20021;-50
2022/11/29 09:23:09;;;;;;;529.95;117.28;;;;;;;5.32;100.00;101781.81;5051855;28;20025;-49
2022/11/29 09:25:35;;;;;;;423.77;113.38;;;;;;;5.49;100.00;101780.38;5051646;28;20029;-49
2022/11/29 09:28:01;;;;;;;611.90;123.85;;;;;;;5.47;100.00;101780.28;5051769;28;20423;-49
2022/11/29 09:30:30;;;;;;;618.15;123.55;;;;;;;5.55;100.00;101789.34;5054944;28;20033;-48
2022/11/29 09:32:56;;;;;;;722.70;134.93;;;;;;;5.57;100.00;101787.75;5055543;28;20037;-49
2022/11/29 09:35:21;;;;;;;714.03;131.18;;;;;;;5.78;100.00;101787.38;5055287;28;20040;-48
2022/11/29 09:37:46;;;;;;;714.92;131.95;;;;;;;5.91;100.00;101797.63;5055106;28;20067;-47
2022/11/29 09:40:18;;;;;;;532.08;117.70;;;;;;;5.90;100.00;101800.97;5055487;28;20051;-49
2022/11/29 09:42:59;;;;;;;518.75;118.57;;;;;;;6.08;100.00;101810.63;5055017;28;20032;-49
2022/11/29 09:45:34;;;;;;;545.25;112.28;;;;;;;5.91;100.00;101812.06;5055584;28;20388;-49
2022/11/29 09:48:25;;;;;;;527.78;114.57;;;;;;;6.03;100.00;101809.44;5055579;28;20025;-49
2022/11/29 09:51:16;;;;;;;621.63;110.78;;;;;;;6.16;100.00;101822.25;5054576;28;20033;-47
2022/11/29 09:54:11;;;;;;;557.15;109.38;;;;;;;6.09;100.00;101815.84;5055194;28;20120;-49
2022/11/29 09:56:40;;;;;;;588.30;107.25;;;;;;;5.94;100.00;101825.94;5054459;28;20037;-49
2022/11/29 09:59:31;;;;;;;454.40;91.80;;;;;;;6.11;100.00;101823.63;5055404;28;20033;-49
2022/11/29 10:02:13;;;;;;;500.40;100.00;;;;;;;5.94;100.00;101825.09;5055268;28;20527;-46
2022/11/29 10:04:44;;;;;;;422.90;85.45;;;;;;;5.97;100.00;101829.50;5054250;28;20052;-49
2022/11/29 10:07:20;;;;;;;552.83;91.40;;;;;;;5.93;100.00;101823.31;5055206;28;20028;-49
2022/11/29 10:09:48;;;;;;;443.33;81.25;;;;;;;6.06;100.00;101822.44;5054371;28;20032;-49
2022/11/29 10:12:39;;;;;;;364.10;84.60;;;;;;;6.13;100.00;101824.59;5054739;28;20374;-47
2022/11/29 10:15:08;;;;;;;343.45;63.95;;;;;;;6.20;100.00;101820.78;5052326;28;20069;-48
2022/11/29 10:17:42;;;;;;;457.77;65.20;;;;;;;6.28;100.00;101823.81;5054163;28;20031;-48
2022/11/29 10:20:20;;;;;;;451.20;66.03;;;;;;;6.34;100.00;101819.03;5054917;28;20025;-48
2022/11/29 10:22:54;;;;;;;405.30;63.50;;;;;;;6.37;100.00;101822.69;5054781;28;20024;-48
2022/11/29 10:25:22;;;;;;;437.33;67.45;;;;;;;6.49;100.00;101829.38;5054427;28;20052;-48
2022/11/29 10:27:48;;;;;;;343.45;54.53;;;;;;;6.43;100.00;101817.97;5054453;28;20104;-49
2022/11/29 10:30:15;;;;;;;350.40;55.50;;;;;;;6.41;100.00;101806.72;5054703;28;20116;-49
2022/11/29 10:32:42;;;;;;;299.70;54.70;;;;;;;6.42;100.00;101808.50;5053708;28;20041;-49
2022/11/29 10:35:12;;;;;;;;;;;;;;;6.60;100.00;101813.00;5055288;28;20052;-49
2022/11/29 10:37:38;;;;;;;325.27;55.45;;;;;;;6.40;100.00;101809.19;5054374;28;19913;-47
2022/11/29 10:40:08;;;;;;;350.17;62.47;;;;;;;6.49;100.00;101808.88;5053569;28;20032;-47
2022/11/29 10:42:51;;;;;;;277.70;58.53;;;;;;;6.45;100.00;101807.81;5053515;28;20384;-48
2022/11/29 10:45:29;;;;;;;302.17;60.22;;;;;;;6.42;100.00;101810.19;5054178;28;20025;-48
2022/11/29 10:48:00;;;;;;;321.13;56.35;;;;;;;6.45;100.00;101812.94;5053854;28;20445;-50
2022/11/29 10:50:29;;;;;;;277.52;56.92;;;;;;;6.33;100.00;101824.97;5054538;28;20025;-47
2022/11/29 10:53:02;;;;;;;292.40;55.45;;;;;;;6.28;100.00;101826.38;5053447;28;20033;-49
2022/11/29 10:55:34;;;;;;;295.17;58.92;;;;;;;6.22;100.00;101830.31;5054265;28;20032;-48
2022/11/29 10:58:15;;;;;;;295.92;60.80;;;;;;;6.25;100.00;101830.50;5054422;28;20025;-49
2022/11/29 11:00:46;;;;;;;257.67;58.50;;;;;;;6.26;100.00;101827.16;5052944;28;20037;-49
2022/11/29 11:03:34;;;;;;;296.02;63.85;;;;;;;6.29;100.00;101825.56;5054137;28;20079;-47
2022/11/29 11:06:24;;;;;;;289.08;62.50;;;;;;;6.33;100.00;101827.53;5053973;28;20029;-45
2022/11/29 11:09:16;;;;;;;272.45;62.38;;;;;;;6.38;100.00;101828.72;5053742;28;20017;-49
2022/11/29 11:11:53;;;;;;;288.45;60.53;;;;;;;6.29;100.00;101825.56;5053401;28;20078;-49
2022/11/29 11:14:22;;;;;;;266.08;62.08;;;;;;;6.26;100.00;101829.72;5053315;28;20018;-49
2022/11/29 11:16:48;;;;;;;260.48;61.00;;;;;;;6.21;100.00;101823.41;5053586;28;20021;-48
2022/11/29 11:19:26;;;;;;;259.65;61.60;;;;;;;6.14;100.00;101821.25;5053968;28;20028;-49
2022/11/29 11:21:53;;;;;;;261.08;61.85;;;;;;;6.29;100.00;101823.91;5052774;28;20029;-48
2022/11/29 11:24:23;;;;;;;265.60;63.53;;;;;;;6.24;100.00;101828.72;5053665;28;20047;-49
2022/11/29 11:26:49;;;;;;;254.45;63.42;;;;;;;6.29;100.00;101825.56;5053535;28;20037;-48
2022/11/29 11:29:18;;;;;;;237.02;64.15;;;;;;;6.25;100.00;101825.38;5053056;28;20047;-50
2022/11/29 11:31:52;;;;;;;250.88;69.65;;;;;;;6.43;100.00;101832.44;5053100;28;20510;-50
2022/11/29 11:34:27;;;;;;;250.43;66.40;;;;;;;6.40;100.00;101829.69;5052968;28;20024;-47
2022/11/29 11:37:11;;;;;;;235.32;64.55;;;;;;;6.42;100.00;101825.56;5052958;28;20029;-49
2022/11/29 11:39:37;;;;;;;237.07;62.50;;;;;;;6.40;100.00;101840.81;5053328;28;20029;-47